Time;durP1;ratioP1;P1;durP2;ratioP2;P2;SDS_P1;SDS_P2;PMS_P1;PMS_P2;Temp;Humidity;BMP_temperature;BMP_pressure;BME280_temperature;BME280_humidity;BME280_pressure;Samples;Min_cycle;Max_cycle;Signal;HPM_P1;HPM_P2
2024/03/03 00:01:58;;;;;;;9.40;6.15;;;2.80;99.90;;;;;;20883227;28;20063;-42
2024/03/03 00:12:00;;;;;;;8.63;5.60;;;2.80;99.90;;;;;;20860529;28;20774;-43
2024/03/03 00:22:02;;;;;;;8.32;4.78;;;2.80;99.90;;;;;;20880326;28;21344;-42
2024/03/03 00:32:04;;;;;;;6.10;3.72;;;2.80;99.90;;;;;;20880303;28;20059;-41
2024/03/03 00:42:05;;;;;;;9.02;3.90;;;2.80;99.90;;;;;;20860127;28;20132;-42
2024/03/03 00:52:07;;;;;;;10.07;5.13;;;2.80;99.90;;;;;;20877603;28;20247;-41
2024/03/03 01:02:09;;;;;;;9.25;5.03;;;2.90;99.90;;;;;;20876316;28;20198;-43
2024/03/03 01:12:11;;;;;;;10.80;4.65;;;2.90;99.90;;;;;;20879370;28;20174;-43
2024/03/03 01:22:12;;;;;;;6.15;4.10;;;2.90;99.90;;;;;;20878353;28;20181;-41
2024/03/03 01:32:14;;;;;;;10.25;5.05;;;2.80;99.90;;;;;;20870095;28;20134;-41
2024/03/03 01:42:16;;;;;;;6.65;3.78;;;2.70;99.90;;;;;;20853226;28;20646;-41
2024/03/03 01:52:18;;;;;;;8.55;4.22;;;2.40;99.90;;;;;;20873227;28;20921;-41
2024/03/03 02:02:20;;;;;;;4.97;3.25;;;2.20;99.90;;;;;;20873589;28;20071;-42
2024/03/03 02:12:25;;;;;;;9.30;4.05;;;2.00;99.90;;;;;;20850913;28;20767;-42
2024/03/03 02:22:27;;;;;;;10.70;5.93;;;2.00;99.90;;;;;;20867003;28;20156;-41
2024/03/03 02:32:29;;;;;;;16.90;7.32;;;1.90;99.90;;;;;;20852807;28;20063;-40
2024/03/03 02:42:31;;;;;;;13.38;7.53;;;1.90;99.90;;;;;;20868558;28;20071;-40
2024/03/03 02:52:33;;;;;;;12.68;7.50;;;2.10;99.90;;;;;;20871119;28;21150;-40
2024/03/03 03:02:34;;;;;;;17.40;7.25;;;2.10;99.90;;;;;;20872033;28;20067;-41
2024/03/03 03:12:36;;;;;;;11.27;6.18;;;2.10;99.90;;;;;;20883173;28;20071;-41
2024/03/03 03:22:38;;;;;;;6.38;3.22;;;2.20;99.90;;;;;;20883535;28;20714;-42
2024/03/03 03:32:42;;;;;;;6.50;2.65;;;2.20;99.90;;;;;;20886847;28;20158;-41
2024/03/03 03:42:44;;;;;;;7.47;2.47;;;2.20;99.90;;;;;;20883005;28;20761;-42
2024/03/03 03:52:46;;;;;;;6.90;2.50;;;2.00;99.90;;;;;;20883377;28;20071;-41
2024/03/03 04:02:47;;;;;;;5.15;3.42;;;2.10;99.90;;;;;;20883092;28;20116;-41
2024/03/03 04:12:52;;;;;;;9.18;3.60;;;2.00;99.90;;;;;;20879492;28;20071;-41
2024/03/03 04:22:54;;;;;;;7.53;3.30;;;2.00;99.90;;;;;;20880236;28;20136;-40
2024/03/03 04:32:55;;;;;;;10.68;4.65;;;2.10;99.90;;;;;;20881156;28;20126;-41
2024/03/03 04:42:57;;;;;;;7.95;3.95;;;2.20;99.90;;;;;;20875447;28;20174;-44
2024/03/03 04:52:59;;;;;;;7.15;3.90;;;2.50;99.90;;;;;;20878578;28;20938;-42
2024/03/03 05:03:00;;;;;;;6.45;3.47;;;2.60;99.90;;;;;;20880445;28;20128;-40
2024/03/03 05:13:02;;;;;;;9.00;3.92;;;2.70;99.90;;;;;;20872782;28;20157;-41
2024/03/03 05:23:04;;;;;;;6.88;3.90;;;2.60;99.90;;;;;;20871557;28;20542;-41
2024/03/03 05:33:06;;;;;;;5.97;3.22;;;2.50;99.90;;;;;;20869694;28;20170;-44
2024/03/03 05:43:11;;;;;;;7.82;3.17;;;2.50;99.90;;;;;;20852116;28;20165;-43
2024/03/03 05:53:12;;;;;;;6.15;2.90;;;2.50;99.90;;;;;;20875502;28;20161;-41
2024/03/03 06:03:14;;;;;;;7.82;3.20;;;2.50;99.90;;;;;;20869153;28;20407;-40
2024/03/03 06:13:16;;;;;;;9.18;2.95;;;2.40;99.90;;;;;;20871052;28;20886;-40
2024/03/03 06:23:17;;;;;;;4.53;1.98;;;2.30;99.90;;;;;;20867154;28;20079;-41
2024/03/03 06:33:22;;;;;;;6.50;2.40;;;2.40;99.90;;;;;;20866469;28;20315;-41
2024/03/03 06:43:24;;;;;;;6.38;2.05;;;2.60;99.90;;;;;;20864952;28;21215;-42
2024/03/03 06:53:28;;;;;;;3.83;2.17;;;2.40;99.90;;;;;;20867120;28;20453;-40
2024/03/03 07:13:50;;;;;;;4.32;1.38;;;2.30;99.90;;;;;;20863441;28;20130;-41
2024/03/03 07:23:52;;;;;;;3.33;1.45;;;2.30;99.90;;;;;;20864325;28;21495;-41
2024/03/03 07:33:54;;;;;;;2.72;1.35;;;2.40;99.90;;;;;;20863534;28;20138;-40
2024/03/03 07:43:56;;;;;;;3.92;1.25;;;2.50;99.90;;;;;;20862720;28;20083;-41
2024/03/03 07:53:59;;;;;;;6.80;1.52;;;2.60;99.90;;;;;;20614707;28;20493;-41
2024/03/03 08:04:04;;;;;;;4.63;2.17;;;2.60;99.90;;;;;;20639167;28;20102;-41
2024/03/03 08:14:07;;;;;;;4.68;1.20;;;2.60;99.90;;;;;;20643738;28;20170;-40
2024/03/03 08:24:09;;;;;;;3.33;1.70;;;2.80;99.90;;;;;;20827083;28;20130;-42
2024/03/03 08:34:11;;;;;;;6.35;1.30;;;3.00;99.90;;;;;;20875194;28;20164;-40
2024/03/03 08:44:13;;;;;;;2.85;1.10;;;3.20;99.90;;;;;;20870248;28;21250;-42
2024/03/03 08:54:15;;;;;;;4.35;2.22;;;3.20;99.90;;;;;;20873569;28;20108;-36
2024/03/03 09:04:17;;;;;;;3.25;1.00;;;3.50;99.90;;;;;;20872784;28;20574;-34
2024/03/03 09:14:18;;;;;;;1.10;0.60;;;4.10;99.90;;;;;;20871314;28;20122;-34
2024/03/03 09:24:22;;;;;;;5.35;1.10;;;4.90;99.90;;;;;;20869974;28;21822;-38
2024/03/03 09:34:24;;;;;;;4.70;1.92;;;5.30;99.90;;;;;;20866495;28;20158;-36
2024/03/03 09:44:37;;;;;;;2.25;0.70;;;6.20;99.90;;;;;;20866059;28;20150;-35
2024/03/03 09:54:41;;;;;;;2.40;0.77;;;6.90;99.90;;;;;;20845138;28;20168;-35
2024/03/03 10:04:45;;;;;;;3.83;1.85;;;6.80;99.90;;;;;;20868130;28;20875;-36
2024/03/03 10:14:48;;;;;;;4.25;0.70;;;7.30;99.90;;;;;;20846648;28;20177;-36
2024/03/03 10:25:11;;;;;;;4.75;0.70;;;8.50;99.90;;;;;;20865182;28;20192;-36
2024/03/03 10:35:14;;;;;;;1.98;0.50;;;8.20;99.90;;;;;;20844467;28;20165;-36
2024/03/03 10:45:16;;;;;;;1.35;0.40;;;8.60;99.90;;;;;;20847305;28;20263;-42
2024/03/03 10:55:18;;;;;;;3.72;0.75;;;10.20;99.90;;;;;;20867373;28;20983;-38
2024/03/03 11:05:20;;;;;;;2.72;0.60;;;9.80;99.90;;;;;;20865717;28;20961;-36
2024/03/03 11:15:23;;;;;;;1.75;0.60;;;9.50;99.90;;;;;;20863534;28;20225;-41
2024/03/03 11:25:27;;;;;;;2.47;0.80;;;8.90;99.90;;;;;;20864483;28;20134;-37
2024/03/03 11:35:30;;;;;;;1.70;0.70;;;8.40;99.90;;;;;;20858370;28;21088;-36
2024/03/03 11:45:43;;;;;;;3.50;1.00;;;8.20;99.90;;;;;;20879612;28;20878;-35
2024/03/03 11:55:50;;;;;;;3.50;0.80;;;7.80;99.90;;;;;;20877963;28;20173;-37
2024/03/03 12:05:53;;;;;;;2.90;1.00;;;7.80;99.90;;;;;;20875817;28;20063;-35
2024/03/03 12:15:55;;;;;;;3.38;1.23;;;7.90;99.90;;;;;;20875252;28;20089;-41
2024/03/03 12:25:56;;;;;;;3.10;1.08;;;7.90;99.90;;;;;;20875113;28;20067;-36
2024/03/03 12:36:02;;;;;;;2.13;0.80;;;7.10;99.90;;;;;;20870922;28;20063;-36
2024/03/03 12:46:05;;;;;;;2.72;0.75;;;7.10;99.90;;;;;;20870927;28;20144;-35
2024/03/03 12:56:21;;;;;;;2.83;0.85;;;7.20;99.90;;;;;;20874607;28;20126;-35
2024/03/03 13:06:23;;;;;;;2.47;0.70;;;7.80;99.90;;;;;;20875675;28;20075;-35
2024/03/03 13:16:25;;;;;;;1.90;0.57;;;7.80;99.90;;;;;;20873512;28;20116;-35
2024/03/03 13:26:27;;;;;;;3.70;0.60;;;8.20;99.90;;;;;;20866929;28;20075;-37
2024/03/03 13:36:29;;;;;;;2.92;0.57;;;8.30;99.90;;;;;;20864337;28;20195;-42
2024/03/03 13:46:31;;;;;;;1.35;0.70;;;8.30;99.90;;;;;;20846595;28;20300;-36
2024/03/03 13:56:33;;;;;;;1.52;0.50;;;7.90;99.90;;;;;;20868271;28;20248;-39
2024/03/03 14:06:36;;;;;;;2.00;0.60;;;7.40;99.90;;;;;;20866034;28;20564;-35
2024/03/03 14:16:40;;;;;;;6.63;0.70;;;7.20;99.90;;;;;;20868002;28;20551;-35
2024/03/03 14:26:42;;;;;;;3.58;0.65;;;6.90;99.90;;;;;;20861557;28;20194;-35
2024/03/03 14:36:45;;;;;;;2.10;0.50;;;7.30;99.90;;;;;;20862737;28;21330;-40
2024/03/03 14:46:47;;;;;;;2.95;0.73;;;7.20;99.90;;;;;;20862701;28;20776;-37
2024/03/03 14:56:49;;;;;;;1.45;0.50;;;6.90;99.90;;;;;;20868585;28;21622;-37
2024/03/03 15:06:51;;;;;;;2.35;0.75;;;6.70;99.90;;;;;;20873889;28;20626;-34
2024/03/03 15:16:53;;;;;;;3.58;0.90;;;6.60;99.90;;;;;;20880586;28;20240;-39
2024/03/03 15:26:55;;;;;;;3.25;0.75;;;6.50;99.90;;;;;;20879330;28;20123;-49
2024/03/03 15:36:57;;;;;;;4.00;1.02;;;6.10;99.90;;;;;;20881467;28;21103;-37
2024/03/03 15:46:59;;;;;;;2.40;0.82;;;5.80;99.90;;;;;;20873116;28;20243;-37
2024/03/03 15:57:02;;;;;;;3.25;1.08;;;5.20;99.90;;;;;;20874738;28;20073;-36
2024/03/03 16:07:04;;;;;;;4.55;0.90;;;5.00;99.90;;;;;;20879827;28;20075;-39
2024/03/03 16:17:06;;;;;;;3.67;1.05;;;5.00;99.90;;;;;;20875373;28;20189;-36
2024/03/03 16:27:11;;;;;;;4.55;0.90;;;5.00;99.90;;;;;;20875126;28;20950;-34
2024/03/03 16:37:15;;;;;;;3.83;1.00;;;4.90;99.90;;;;;;20873815;28;20166;-34
2024/03/03 16:47:18;;;;;;;3.42;0.98;;;4.70;99.90;;;;;;20876324;28;20165;-36
2024/03/03 16:57:20;;;;;;;2.50;0.85;;;4.60;99.90;;;;;;20875968;28;20177;-34
2024/03/03 17:07:22;;;;;;;3.28;1.70;;;4.20;99.90;;;;;;20873906;28;20130;-33
2024/03/03 17:17:27;;;;;;;1.83;0.70;;;4.20;99.90;;;;;;20857320;28;20180;-35
2024/03/03 17:27:29;;;;;;;4.70;1.33;;;3.90;99.90;;;;;;20874262;28;20236;-36
2024/03/03 17:37:33;;;;;;;4.38;0.82;;;4.10;99.90;;;;;;20872260;28;20170;-36
2024/03/03 17:47:35;;;;;;;3.60;0.88;;;4.10;99.90;;;;;;20871853;28;20134;-34
2024/03/03 17:57:37;;;;;;;6.00;1.35;;;3.90;99.90;;;;;;20871180;28;20067;-34
2024/03/03 18:07:40;;;;;;;3.70;1.17;;;3.70;99.90;;;;;;20870216;28;20850;-34
2024/03/03 18:17:42;;;;;;;1.95;1.20;;;4.10;99.90;;;;;;20871349;28;20127;-34
2024/03/03 18:27:44;;;;;;;3.53;1.35;;;4.00;99.90;;;;;;20870729;28;20155;-36
2024/03/03 18:37:46;;;;;;;3.08;0.80;;;4.20;99.90;;;;;;20867445;28;20123;-34
2024/03/03 18:47:51;;;;;;;2.80;0.95;;;4.00;99.90;;;;;;20866996;28;20075;-35
2024/03/03 18:57:53;;;;;;;4.90;0.90;;;3.90;99.90;;;;;;20866576;28;20173;-35
2024/03/03 19:07:57;;;;;;;2.10;0.90;;;3.90;99.90;;;;;;20869262;28;21115;-36
2024/03/03 19:18:00;;;;;;;2.03;0.75;;;4.10;99.90;;;;;;20868754;28;20067;-36
2024/03/03 19:28:04;;;;;;;5.13;0.77;;;4.30;99.90;;;;;;20868222;28;20514;-35
2024/03/03 19:38:06;;;;;;;3.30;0.65;;;4.20;99.90;;;;;;20867238;28;20682;-35
2024/03/03 19:48:08;;;;;;;2.78;0.43;;;4.00;99.90;;;;;;20868502;28;20070;-33
2024/03/03 19:58:10;;;;;;;2.50;0.88;;;4.10;99.90;;;;;;20881271;28;20116;-34
2024/03/03 20:08:12;;;;;;;3.33;0.50;;;4.10;99.90;;;;;;20878279;28;20135;-33
2024/03/03 20:18:17;;;;;;;2.60;0.80;;;3.70;99.90;;;;;;20880770;28;20155;-36
2024/03/03 20:28:19;;;;;;;3.60;0.60;;;3.50;99.90;;;;;;20879576;28;20055;-34
2024/03/03 20:38:20;;;;;;;3.15;0.50;;;3.50;99.90;;;;;;20879236;28;20694;-34
2024/03/03 20:48:23;;;;;;;1.77;0.68;;;3.50;99.90;;;;;;20875517;28;20128;-37
2024/03/03 20:58:25;;;;;;;2.20;0.70;;;3.40;99.90;;;;;;20877671;28;20071;-35
2024/03/03 21:08:27;;;;;;;1.15;0.52;;;3.50;99.90;;;;;;20877048;28;20690;-35
2024/03/03 21:18:28;;;;;;;1.40;0.65;;;3.50;99.90;;;;;;20876797;28;20185;-35
2024/03/03 21:28:32;;;;;;;4.22;0.90;;;3.60;99.90;;;;;;20872719;28;20686;-39
2024/03/03 21:38:34;;;;;;;2.15;0.50;;;3.60;99.90;;;;;;20873525;28;20136;-34
2024/03/03 21:48:36;;;;;;;3.42;0.98;;;3.60;99.90;;;;;;20873555;28;20071;-33
2024/03/03 21:58:37;;;;;;;4.00;1.63;;;3.40;99.90;;;;;;20851509;28;20071;-33
2024/03/03 22:08:39;;;;;;;3.25;0.90;;;3.30;99.90;;;;;;20869200;28;20144;-35
2024/03/03 22:18:45;;;;;;;3.58;1.15;;;3.40;99.90;;;;;;20870457;28;20686;-38
2024/03/03 22:28:46;;;;;;;4.22;1.67;;;3.20;99.90;;;;;;20870826;28;20067;-34
2024/03/03 22:38:48;;;;;;;1.17;0.57;;;3.10;99.90;;;;;;20868389;28;20462;-36
2024/03/03 22:48:50;;;;;;;2.67;0.80;;;3.00;99.90;;;;;;20867326;28;20252;-33
2024/03/03 22:58:52;;;;;;;8.68;5.18;;;3.00;99.90;;;;;;20867705;28;20174;-37
2024/03/03 23:08:54;;;;;;;1.05;0.40;;;2.70;99.90;;;;;;20868285;28;20075;-41
2024/03/03 23:18:58;;;;;;;2.30;0.80;;;2.60;99.90;;;;;;20868963;28;20122;-35
2024/03/03 23:29:00;;;;;;;1.05;0.95;;;2.50;99.90;;;;;;20876826;28;20100;-36
2024/03/03 23:39:02;;;;;;;0.85;0.85;;;2.40;99.90;;;;;;20878448;28;20052;-35
2024/03/03 23:49:04;;;;;;;0.32;0.20;;;2.40;99.90;;;;;;20882983;28;20184;-40
2024/03/03 23:59:06;;;;;;;0.35;0.20;;;2.30;99.90;;;;;;20863019;28;20638;-38
